createdAt,value
2023-01-21T00:01:05.959Z,1.59
2023-01-21T00:03:04.324Z,1.58
2023-01-21T00:05:04.503Z,1.52
2023-01-21T00:07:02.935Z,1.46
2023-01-21T00:09:01.355Z,1.43
2023-01-21T00:11:06.324Z,1.40
2023-01-21T00:13:05.860Z,1.35
2023-01-21T00:15:06.952Z,1.35
2023-01-21T00:17:06.718Z,1.30
2023-01-21T00:19:04.968Z,1.25
2023-01-21T00:21:03.632Z,1.20
2023-01-21T00:23:02.227Z,1.20
2023-01-21T00:25:00.498Z,1.15
2023-01-21T00:26:58.728Z,1.07
2023-01-21T00:28:57.162Z,1.08
2023-01-21T00:30:58.877Z,1.08
2023-01-21T00:32:58.925Z,1.11
2023-01-21T00:34:57.127Z,1.11
2023-01-21T00:36:56.627Z,1.08
2023-01-21T00:38:54.901Z,1.12
2023-01-21T00:40:53.113Z,1.10
2023-01-21T00:42:51.382Z,1.13
2023-01-21T00:44:49.768Z,1.12
2023-01-21T00:46:48.077Z,1.14
2023-01-21T00:48:47.929Z,1.16
2023-01-21T00:50:46.291Z,1.16
2023-01-21T00:52:44.637Z,1.18
2023-01-21T00:54:42.891Z,1.17
2023-01-21T00:56:41.130Z,1.16
2023-01-21T00:58:39.954Z,1.15
2023-01-21T01:00:38.312Z,1.12
2023-01-21T01:02:36.619Z,1.10
2023-01-21T01:04:36.344Z,1.04
2023-01-21T01:06:35.099Z,1.03
2023-01-21T01:08:34.356Z,1.03
2023-01-21T01:10:32.650Z,1.05
2023-01-21T01:12:30.854Z,1.02
2023-01-21T01:14:29.163Z,1.01
2023-01-21T01:16:27.956Z,1.02
2023-01-21T01:18:27.307Z,1.06
2023-01-21T01:20:27.090Z,1.07
2023-01-21T01:22:25.269Z,1.09
2023-01-21T01:24:23.610Z,1.09
2023-01-21T01:26:23.368Z,1.11
2023-01-21T01:28:21.695Z,1.15
2023-01-21T01:30:20.173Z,1.17
2023-01-21T01:32:18.558Z,1.15
2023-01-21T01:34:16.903Z,1.20
2023-01-21T01:36:19.628Z,1.18
2023-01-21T01:38:20.156Z,1.16
2023-01-21T01:40:18.845Z,1.10
2023-01-21T01:42:17.535Z,1.08
2023-01-21T01:44:49.101Z,1.05
2023-01-21T01:46:47.345Z,1.07
2023-01-21T01:48:49.575Z,1.07
2023-01-21T01:50:50.366Z,1.09
2023-01-21T01:52:50.061Z,1.05
2023-01-21T01:54:50.939Z,1.09
2023-01-21T01:56:53.050Z,1.08
2023-01-21T01:58:51.323Z,1.06
2023-01-21T02:00:50.106Z,1.03
2023-01-21T02:03:09.005Z,1.04
2023-01-21T02:05:09.286Z,1.11
2023-01-21T02:07:07.771Z,1.06
2023-01-21T02:09:08.235Z,1.08
2023-01-21T02:11:12.977Z,1.15
2023-01-21T02:13:11.535Z,1.17
2023-01-21T02:15:11.046Z,1.17
2023-01-21T02:17:23.273Z,1.17
2023-01-21T02:19:46.473Z,1.12
2023-01-21T02:21:59.297Z,1.11
2023-01-21T02:24:30.092Z,1.06
2023-01-21T02:27:10.703Z,1.06
2023-01-21T02:29:43.604Z,1.04
2023-01-21T02:32:09.381Z,0.99
2023-01-21T02:34:18.895Z,0.95
2023-01-21T02:36:32.782Z,0.95
2023-01-21T02:38:36.354Z,1.00
2023-01-21T02:40:42.723Z,0.99
2023-01-21T02:42:47.974Z,0.99
2023-01-21T02:44:53.748Z,0.99
2023-01-21T02:46:57.569Z,1.03
2023-01-21T02:49:00.302Z,1.04
2023-01-21T02:51:00.334Z,1.03
2023-01-21T02:52:59.040Z,1.05
2023-01-21T02:54:59.086Z,1.04
2023-01-21T02:56:57.384Z,1.04
2023-01-21T02:59:00.266Z,1.07
2023-01-21T03:01:12.505Z,1.14
2023-01-21T03:03:56.256Z,1.19
2023-01-21T03:06:28.247Z,1.20
2023-01-21T03:08:31.835Z,1.17
2023-01-21T03:10:33.807Z,1.17
2023-01-21T03:12:39.076Z,1.15
2023-01-21T03:14:59.651Z,1.08
2023-01-21T03:17:03.898Z,1.05
2023-01-21T03:19:07.980Z,1.03
2023-01-21T03:21:11.304Z,1.02
2023-01-21T03:23:15.180Z,0.94
2023-01-21T03:25:17.062Z,0.96
2023-01-21T03:27:17.736Z,0.95
2023-01-21T03:29:20.544Z,0.95
2023-01-21T03:31:24.166Z,0.93
2023-01-21T03:33:24.090Z,0.98
2023-01-21T03:35:25.745Z,0.97
2023-01-21T03:37:31.992Z,0.85
2023-01-21T03:39:35.859Z,0.86
2023-01-21T03:41:39.151Z,0.86
2023-01-21T03:43:37.690Z,0.83
2023-01-21T03:45:41.182Z,0.87
2023-01-21T03:47:40.419Z,0.88
2023-01-21T03:49:42.354Z,0.86
2023-01-21T03:51:43.197Z,0.77
2023-01-21T03:53:43.640Z,0.67
2023-01-21T03:55:41.776Z,0.60
2023-01-21T03:57:40.182Z,0.51
2023-01-21T03:59:38.475Z,0.40
2023-01-21T04:01:36.924Z,0.35
2023-01-21T04:03:35.147Z,0.31
2023-01-21T04:05:33.436Z,0.29
2023-01-21T04:07:31.686Z,0.28
2023-01-21T04:09:31.469Z,0.29
2023-01-21T04:11:29.698Z,0.28
2023-01-21T04:13:27.845Z,0.26
2023-01-21T04:15:26.212Z,0.22
2023-01-21T04:17:28.361Z,0.20
2023-01-21T04:19:26.628Z,0.20
2023-01-21T04:21:25.016Z,0.19
2023-01-21T04:23:23.142Z,0.18
2023-01-21T04:25:22.772Z,0.14
2023-01-21T04:27:20.984Z,0.17
2023-01-21T04:29:19.338Z,0.13
2023-01-21T04:31:17.578Z,0.14
2023-01-21T04:33:16.019Z,0.22
2023-01-21T04:35:14.301Z,0.24
2023-01-21T04:37:12.461Z,0.27
2023-01-21T04:39:11.444Z,0.27
2023-01-21T04:41:11.033Z,0.26
2023-01-21T04:43:09.234Z,0.29
2023-01-21T04:45:10.441Z,0.30
2023-01-21T04:47:08.661Z,0.30
2023-01-21T04:49:06.854Z,0.27
2023-01-21T04:51:06.595Z,0.23
2023-01-21T04:53:05.178Z,0.19
2023-01-21T04:55:10.946Z,0.15
2023-01-21T04:57:10.888Z,0.21
2023-01-21T04:59:09.151Z,0.26
2023-01-21T05:01:07.761Z,0.29
2023-01-21T05:03:06.309Z,0.31
2023-01-21T05:05:04.848Z,0.35
2023-01-21T05:07:03.809Z,0.33
2023-01-21T05:09:01.898Z,0.39
2023-01-21T05:11:00.161Z,0.35
2023-01-21T05:12:59.951Z,0.31
2023-01-21T05:14:58.871Z,0.36
2023-01-21T05:16:57.055Z,0.41
2023-01-21T05:18:55.163Z,0.44
2023-01-21T05:20:53.660Z,0.44
2023-01-21T05:22:51.853Z,0.41
2023-01-21T05:24:50.181Z,0.47
2023-01-21T05:26:49.702Z,0.46
2023-01-21T05:28:49.802Z,0.36
2023-01-21T05:30:48.326Z,0.26
2023-01-21T05:32:46.490Z,0.15
2023-01-21T05:34:44.648Z,0.14
2023-01-21T05:36:42.848Z,0.14
2023-01-21T05:38:41.130Z,0.12
2023-01-21T05:40:39.335Z,0.09
2023-01-21T05:42:37.481Z,0.06
2023-01-21T05:44:36.999Z,-0.01
2023-01-21T05:46:35.299Z,-0.05
2023-01-21T05:48:33.482Z,-0.09
2023-01-21T05:50:32.733Z,-0.12
2023-01-21T05:52:30.862Z,-0.10
2023-01-21T05:54:29.102Z,-0.12
2023-01-21T05:56:27.357Z,-0.11
2023-01-21T05:58:26.524Z,-0.11
2023-01-21T06:00:26.125Z,-0.05
2023-01-21T06:02:24.793Z,-0.06
2023-01-21T06:04:28.401Z,-0.06
2023-01-21T06:06:26.669Z,0.03
2023-01-21T06:08:25.199Z,0.07
2023-01-21T06:10:23.376Z,0.13
2023-01-21T06:12:23.252Z,0.17
2023-01-21T06:14:22.030Z,0.25
2023-01-21T06:16:21.643Z,0.30
2023-01-21T06:18:19.870Z,0.26
2023-01-21T06:20:18.690Z,0.21
2023-01-21T06:22:17.354Z,0.29
2023-01-21T06:24:15.542Z,0.31
2023-01-21T06:26:13.786Z,0.26
2023-01-21T06:28:12.276Z,0.22
2023-01-21T06:30:12.381Z,0.31
2023-01-21T06:32:12.078Z,0.91
2023-01-21T06:34:12.747Z,1.25
2023-01-21T06:36:11.193Z,2.57
2023-01-21T06:38:09.333Z,4.02
2023-01-21T06:40:11.993Z,4.72
2023-01-21T06:42:10.226Z,5.12
2023-01-21T06:44:08.442Z,4.94
2023-01-21T06:46:06.862Z,5.45
2023-01-21T06:48:06.785Z,5.87
2023-01-21T06:50:05.351Z,6.37
2023-01-21T06:52:03.645Z,5.63
2023-01-21T06:54:01.807Z,4.97
2023-01-21T06:56:00.169Z,4.28
2023-01-21T06:57:58.472Z,4.07
2023-01-21T06:59:56.720Z,3.82
2023-01-21T07:01:55.349Z,3.34
2023-01-21T07:03:54.941Z,2.94
2023-01-21T07:05:53.260Z,2.60
2023-01-21T07:07:51.469Z,2.28
2023-01-21T07:09:49.607Z,2.22
2023-01-21T07:11:48.421Z,2.24
2023-01-21T07:13:46.586Z,2.14
2023-01-21T07:15:44.977Z,2.09
2023-01-21T07:17:43.295Z,2.13
2023-01-21T07:19:42.793Z,2.27
2023-01-21T07:21:42.166Z,2.51
2023-01-21T07:23:40.324Z,2.59
2023-01-21T07:25:38.473Z,2.60
2023-01-21T07:27:36.748Z,2.65
2023-01-21T07:29:34.928Z,2.74
2023-01-21T07:31:33.340Z,2.88
2023-01-21T07:33:32.004Z,2.97
2023-01-21T07:35:31.653Z,3.11
2023-01-21T07:37:29.949Z,3.42
2023-01-21T07:39:28.218Z,3.53
2023-01-21T07:41:26.504Z,3.66
2023-01-21T07:43:24.851Z,3.71
2023-01-21T07:45:23.414Z,3.82
2023-01-21T07:47:21.618Z,3.88
2023-01-21T07:49:19.795Z,3.89
2023-01-21T07:51:20.574Z,3.91
2023-01-21T07:53:18.766Z,3.96
2023-01-21T07:55:17.302Z,3.95
2023-01-21T07:57:18.597Z,3.84
2023-01-21T07:59:21.105Z,3.75
2023-01-21T08:01:19.489Z,3.75
2023-01-21T08:03:21.895Z,3.89
2023-01-21T08:05:19.938Z,3.99
2023-01-21T08:07:19.715Z,4.10
2023-01-21T08:09:17.928Z,4.22
2023-01-21T08:11:16.218Z,4.44
2023-01-21T08:13:14.485Z,4.64
2023-01-21T08:15:12.992Z,4.82
2023-01-21T08:17:11.276Z,5.00
2023-01-21T08:19:10.430Z,5.13
2023-01-21T08:21:10.313Z,5.20
2023-01-21T08:23:10.002Z,5.38
2023-01-21T08:25:10.867Z,6.77
2023-01-21T08:27:09.128Z,8.91
2023-01-21T08:29:07.396Z,10.93
2023-01-21T08:31:07.638Z,12.08
2023-01-21T08:33:06.554Z,13.15
2023-01-21T08:35:05.620Z,13.63
2023-01-21T08:37:03.891Z,14.10
2023-01-21T08:39:05.757Z,14.33
2023-01-21T08:41:04.082Z,14.53
2023-01-21T08:43:03.976Z,13.72
2023-01-21T08:45:02.082Z,13.43
2023-01-21T08:47:01.019Z,12.36
2023-01-21T08:48:59.215Z,12.32
2023-01-21T08:50:59.958Z,12.48
2023-01-21T08:52:58.194Z,13.01
2023-01-21T08:54:57.942Z,12.91
2023-01-21T08:56:56.254Z,11.65
2023-01-21T08:58:58.519Z,10.04
2023-01-21T09:00:57.248Z,11.17
2023-01-21T09:02:55.888Z,11.39
2023-01-21T09:04:54.072Z,11.94
2023-01-21T09:06:52.285Z,10.43
2023-01-21T09:08:50.511Z,8.69
2023-01-21T09:11:02.369Z,7.72
2023-01-21T09:13:04.370Z,7.68
2023-01-21T09:15:02.618Z,8.61
2023-01-21T09:17:00.815Z,10.33
2023-01-21T09:18:59.164Z,10.98
2023-01-21T09:21:02.668Z,12.51
2023-01-21T09:23:01.109Z,13.36
2023-01-21T09:24:59.244Z,13.91
2023-01-21T09:26:58.888Z,14.69
2023-01-21T09:28:59.146Z,14.17
2023-01-21T09:30:59.072Z,12.46
2023-01-21T09:32:57.370Z,10.82
2023-01-21T09:34:55.484Z,10.45
2023-01-21T09:36:53.727Z,9.85
2023-01-21T09:38:52.252Z,9.59
2023-01-21T09:40:51.045Z,11.16
2023-01-21T09:42:50.702Z,11.27
2023-01-21T09:44:52.785Z,11.18
2023-01-21T09:46:57.224Z,13.17
2023-01-21T09:48:57.314Z,14.11
2023-01-21T09:50:57.805Z,14.68
2023-01-21T09:53:03.073Z,15.46
2023-01-21T09:55:07.746Z,15.49
2023-01-21T09:57:37.931Z,15.74
2023-01-21T09:59:50.451Z,14.73
2023-01-21T10:01:49.733Z,14.32
2023-01-21T10:03:55.522Z,13.78
2023-01-21T10:06:06.091Z,14.27
2023-01-21T10:08:12.692Z,14.31
2023-01-21T10:10:21.188Z,14.84
2023-01-21T10:12:35.526Z,15.06
2023-01-21T10:14:59.459Z,15.71
2023-01-21T10:17:06.507Z,15.44
2023-01-21T10:19:06.871Z,15.09
2023-01-21T10:21:09.740Z,15.79
2023-01-21T10:23:15.352Z,15.78
2023-01-21T10:25:21.377Z,15.68
2023-01-21T10:27:22.426Z,15.58
2023-01-21T10:29:25.559Z,16.52
2023-01-21T10:31:28.438Z,17.61
2023-01-21T10:33:29.000Z,17.83
2023-01-21T10:35:39.436Z,17.65
2023-01-21T10:37:45.344Z,17.00
2023-01-21T10:39:50.344Z,16.58
2023-01-21T10:42:19.140Z,16.61
2023-01-21T10:44:26.462Z,17.09
2023-01-21T10:46:35.043Z,18.02
2023-01-21T10:48:40.051Z,17.72
2023-01-21T10:50:46.475Z,17.25
2023-01-21T10:52:51.622Z,17.49
2023-01-21T10:54:54.907Z,17.21
2023-01-21T10:57:02.287Z,17.58
2023-01-21T10:59:05.118Z,18.34
2023-01-21T11:01:07.341Z,18.67
2023-01-21T11:03:15.703Z,18.72
2023-01-21T11:05:16.686Z,18.45
2023-01-21T11:07:18.903Z,18.12
2023-01-21T11:09:17.189Z,18.62
2023-01-21T11:11:20.674Z,17.86
2023-01-21T11:13:18.797Z,17.59
2023-01-21T11:15:19.900Z,17.15
2023-01-21T11:17:33.317Z,15.52
2023-01-21T11:19:33.136Z,13.55
2023-01-21T11:21:31.267Z,12.23
2023-01-21T11:23:31.543Z,11.49
2023-01-21T11:25:37.842Z,11.51
2023-01-21T11:27:39.401Z,11.53
2023-01-21T11:29:41.975Z,11.04
2023-01-21T11:31:41.734Z,10.66
2023-01-21T11:33:41.696Z,10.42
2023-01-21T11:35:41.326Z,10.24
2023-01-21T11:37:39.914Z,10.30
2023-01-21T11:39:41.665Z,10.22
2023-01-21T11:41:39.973Z,10.10
2023-01-21T11:43:42.875Z,10.39
2023-01-21T11:45:41.144Z,10.47
2023-01-21T11:47:40.760Z,10.27
2023-01-21T11:49:49.019Z,10.29
2023-01-21T11:51:49.355Z,10.19
2023-01-21T11:53:47.872Z,10.29
2023-01-21T11:55:48.847Z,10.22
2023-01-21T11:57:53.254Z,10.16
2023-01-21T11:59:53.347Z,10.20
2023-01-21T12:01:54.680Z,10.44
2023-01-21T12:03:56.145Z,10.50
2023-01-21T12:05:55.145Z,10.54
2023-01-21T12:07:56.156Z,10.55
2023-01-21T12:10:02.595Z,10.53
2023-01-21T12:12:31.215Z,10.26
2023-01-21T12:14:38.284Z,10.30
2023-01-21T12:16:38.425Z,10.44
2023-01-21T12:19:03.108Z,10.33
2023-01-21T12:21:05.789Z,10.53
2023-01-21T12:23:41.312Z,10.75
2023-01-21T12:25:47.747Z,10.89
2023-01-21T12:27:56.579Z,10.92
2023-01-21T12:30:09.028Z,10.69
2023-01-21T12:32:15.129Z,10.52
2023-01-21T12:34:22.116Z,10.29
2023-01-21T12:36:26.321Z,10.21
2023-01-21T12:38:31.305Z,10.20
2023-01-21T12:40:34.042Z,10.44
2023-01-21T12:42:38.171Z,10.46
2023-01-21T12:44:41.133Z,10.50
2023-01-21T12:46:44.696Z,10.41
2023-01-21T12:48:47.970Z,10.23
2023-01-21T12:50:51.447Z,9.97
2023-01-21T12:53:05.258Z,9.75
2023-01-21T12:55:15.228Z,9.58
2023-01-21T12:57:20.565Z,9.37
2023-01-21T12:59:25.544Z,9.34
2023-01-21T13:01:41.031Z,9.31
2023-01-21T13:03:51.679Z,9.15
2023-01-21T13:05:56.107Z,9.19
2023-01-21T13:07:57.490Z,9.07
2023-01-21T13:10:03.966Z,8.87
2023-01-21T13:12:07.589Z,8.86
2023-01-21T13:14:26.338Z,8.88
2023-01-21T13:16:27.190Z,8.78
2023-01-21T13:18:33.731Z,8.80
2023-01-21T13:20:35.552Z,8.78
2023-01-21T13:22:41.736Z,8.77
2023-01-21T13:24:57.326Z,8.77
2023-01-21T13:27:13.487Z,8.68
2023-01-21T13:29:19.780Z,8.73
2023-01-21T13:31:25.537Z,8.66
2023-01-21T13:33:36.669Z,8.79
2023-01-21T13:35:42.838Z,8.84
2023-01-21T13:37:51.484Z,8.84
2023-01-21T13:39:58.369Z,8.63
2023-01-21T13:42:10.746Z,8.65
2023-01-21T13:44:36.475Z,8.80
2023-01-21T13:46:49.507Z,8.75
2023-01-21T13:49:04.301Z,8.76
2023-01-21T13:51:11.667Z,8.79
2023-01-21T13:53:34.272Z,8.71
2023-01-21T13:55:44.919Z,8.58
2023-01-21T13:58:02.517Z,8.51
2023-01-21T14:00:12.906Z,8.48
2023-01-21T14:02:19.161Z,8.50
2023-01-21T14:04:31.311Z,8.34
2023-01-21T14:06:34.608Z,8.34
2023-01-21T14:08:37.676Z,8.32
2023-01-21T14:10:41.746Z,8.25
2023-01-21T14:13:06.546Z,8.15
2023-01-21T14:15:27.137Z,8.06
2023-01-21T14:17:45.918Z,8.09
2023-01-21T14:20:12.923Z,8.11
2023-01-21T14:22:27.442Z,8.21
2023-01-21T14:24:44.595Z,8.23
2023-01-21T14:26:52.241Z,8.17
2023-01-21T14:29:00.777Z,8.15
2023-01-21T14:31:06.221Z,8.19
2023-01-21T14:33:10.745Z,8.24
2023-01-21T14:35:17.386Z,8.18
2023-01-21T14:37:19.745Z,8.11
2023-01-21T14:39:33.384Z,8.04
2023-01-21T14:41:56.103Z,7.97
2023-01-21T14:43:54.364Z,7.89
2023-01-21T14:45:54.794Z,7.85
2023-01-21T14:47:56.033Z,7.82
2023-01-21T14:49:55.933Z,7.75
2023-01-21T14:51:54.939Z,7.73
2023-01-21T14:53:58.342Z,7.70
2023-01-21T14:56:13.570Z,7.71
2023-01-21T14:58:23.639Z,7.72
2023-01-21T15:00:25.121Z,7.69
2023-01-21T15:02:32.356Z,7.71
2023-01-21T15:04:35.339Z,7.70
2023-01-21T15:06:38.511Z,7.72
2023-01-21T15:08:45.417Z,7.67
2023-01-21T15:10:44.636Z,7.62
2023-01-21T15:12:49.719Z,7.59
2023-01-21T15:14:51.010Z,7.58
2023-01-21T15:16:49.470Z,7.54
2023-01-21T15:19:19.064Z,7.49
2023-01-21T15:21:38.983Z,7.46
2023-01-21T15:23:39.789Z,7.43
2023-01-21T15:25:38.073Z,7.42
2023-01-21T15:27:36.144Z,7.34
2023-01-21T15:29:36.839Z,7.29
2023-01-21T15:31:44.231Z,7.28
2023-01-21T15:33:48.776Z,7.28
2023-01-21T15:35:46.740Z,7.25
2023-01-21T15:37:50.111Z,7.21
2023-01-21T15:39:52.264Z,7.16
2023-01-21T15:42:04.283Z,7.15
2023-01-21T15:44:24.004Z,7.17
2023-01-21T15:46:32.230Z,7.17
2023-01-21T15:48:49.498Z,7.16
2023-01-21T15:50:53.055Z,7.15
2023-01-21T15:53:04.249Z,7.13
2023-01-21T15:55:18.919Z,7.09
2023-01-21T15:57:29.435Z,6.98
2023-01-21T15:59:44.526Z,6.88
2023-01-21T16:01:43.046Z,6.88
2023-01-21T16:03:46.620Z,6.88
2023-01-21T16:05:55.875Z,6.87
2023-01-21T16:08:07.947Z,6.88
2023-01-21T16:10:16.744Z,6.88
2023-01-21T16:12:26.413Z,6.86
2023-01-21T16:14:38.885Z,6.85
2023-01-21T16:16:49.157Z,6.90
2023-01-21T16:18:56.105Z,6.92
2023-01-21T16:20:57.039Z,6.94
2023-01-21T16:23:02.354Z,6.96
2023-01-21T16:25:05.591Z,7.05
2023-01-21T16:27:18.030Z,7.08
2023-01-21T16:29:16.682Z,7.11
2023-01-21T16:31:15.037Z,7.15
2023-01-21T16:33:16.034Z,7.17
2023-01-21T16:35:14.889Z,7.19
2023-01-21T16:37:15.132Z,7.21
2023-01-21T16:39:14.774Z,7.22
2023-01-21T16:41:25.198Z,7.24
2023-01-21T16:43:26.479Z,7.20
2023-01-21T16:45:26.125Z,7.22
2023-01-21T16:47:27.271Z,7.42
2023-01-21T16:49:26.804Z,7.43
2023-01-21T16:51:29.586Z,7.36
2023-01-21T16:53:28.208Z,7.27
2023-01-21T16:55:30.917Z,7.19
2023-01-21T16:57:32.024Z,7.20
2023-01-21T16:59:38.312Z,7.18
2023-01-21T17:01:36.561Z,7.19
2023-01-21T17:03:35.152Z,7.18
2023-01-21T17:05:38.044Z,7.19
2023-01-21T17:07:43.641Z,7.24
2023-01-21T17:09:41.880Z,7.21
2023-01-21T17:11:48.043Z,7.26
2023-01-21T17:13:47.094Z,7.30
2023-01-21T17:15:57.420Z,7.34
2023-01-21T17:17:58.496Z,7.36
2023-01-21T17:19:56.981Z,7.39
2023-01-21T17:21:58.322Z,7.36
2023-01-21T17:23:59.878Z,7.37
2023-01-21T17:26:00.908Z,7.36
2023-01-21T17:28:00.587Z,7.32
2023-01-21T17:30:28.267Z,7.31
2023-01-21T17:32:28.372Z,7.27
2023-01-21T17:34:27.876Z,7.29
2023-01-21T17:36:32.923Z,7.30
2023-01-21T17:38:31.220Z,7.32
2023-01-21T17:40:33.474Z,7.27
2023-01-21T17:42:39.628Z,7.30
2023-01-21T17:44:39.373Z,7.31
2023-01-21T17:46:37.669Z,7.27
2023-01-21T17:48:39.310Z,7.26
2023-01-21T17:50:37.818Z,7.29
2023-01-21T17:52:36.230Z,7.30
2023-01-21T17:54:34.632Z,7.32
2023-01-21T17:56:40.480Z,7.32
2023-01-21T17:58:51.436Z,7.28
2023-01-21T18:00:51.101Z,7.27
2023-01-21T18:02:49.307Z,7.27
2023-01-21T18:04:47.601Z,7.28
2023-01-21T18:06:45.967Z,7.26
2023-01-21T18:08:44.292Z,7.21
2023-01-21T18:10:42.902Z,7.19
2023-01-21T18:12:41.328Z,7.18
2023-01-21T18:14:39.667Z,7.17
2023-01-21T18:16:39.368Z,7.16
2023-01-21T18:18:38.467Z,7.17
2023-01-21T18:20:37.690Z,7.18
2023-01-21T18:22:36.267Z,7.18
2023-01-21T18:24:35.579Z,7.16
2023-01-21T18:26:35.199Z,7.14
2023-01-21T18:28:34.410Z,7.09
2023-01-21T18:30:32.555Z,7.06
2023-01-21T18:32:32.230Z,7.10
2023-01-21T18:34:30.394Z,7.10
2023-01-21T18:36:28.743Z,7.06
2023-01-21T18:38:28.119Z,7.09
2023-01-21T18:40:26.555Z,7.05
2023-01-21T18:42:25.001Z,7.06
2023-01-21T18:44:23.260Z,7.08
2023-01-21T18:46:21.516Z,7.09
2023-01-21T18:48:24.387Z,7.08
2023-01-21T18:50:24.608Z,7.06
2023-01-21T18:52:22.811Z,6.98
2023-01-21T18:54:21.465Z,6.94
2023-01-21T18:56:20.010Z,6.85
2023-01-21T18:58:18.577Z,6.78
2023-01-21T19:00:22.476Z,6.69
2023-01-21T19:02:21.910Z,6.60
2023-01-21T19:04:21.546Z,6.57
2023-01-21T19:06:19.673Z,6.69
2023-01-21T19:08:21.994Z,6.64
2023-01-21T19:10:21.465Z,6.75
2023-01-21T19:12:22.995Z,6.77
2023-01-21T19:14:21.336Z,6.65
2023-01-21T19:16:20.890Z,6.58
2023-01-21T19:18:19.240Z,6.53
2023-01-21T19:20:24.059Z,6.49
2023-01-21T19:22:22.566Z,6.46
2023-01-21T19:24:20.864Z,6.49
2023-01-21T19:26:19.124Z,6.57
2023-01-21T19:28:17.555Z,6.53
2023-01-21T19:30:21.204Z,6.50
2023-01-21T19:32:19.384Z,6.53
2023-01-21T19:34:17.696Z,6.54
2023-01-21T19:36:20.515Z,6.50
2023-01-21T19:38:20.695Z,6.52
2023-01-21T19:40:21.057Z,6.54
2023-01-21T19:42:19.178Z,6.61
2023-01-21T19:44:17.601Z,6.61
2023-01-21T19:46:16.111Z,6.58
2023-01-21T19:48:16.333Z,6.58
2023-01-21T19:50:16.810Z,6.64
2023-01-21T19:52:16.570Z,6.65
2023-01-21T19:54:14.887Z,6.72
2023-01-21T19:56:17.184Z,6.74
2023-01-21T19:58:19.894Z,6.73
2023-01-21T20:00:22.410Z,6.77
2023-01-21T20:02:20.710Z,6.77
2023-01-21T20:04:19.254Z,6.74
2023-01-21T20:06:17.658Z,6.73
2023-01-21T20:08:21.160Z,6.68
2023-01-21T20:10:21.284Z,6.61
2023-01-21T20:12:19.533Z,6.55
2023-01-21T20:14:17.846Z,6.50
2023-01-21T20:16:18.774Z,6.47
2023-01-21T20:18:21.354Z,6.41
2023-01-21T20:20:22.353Z,6.33
2023-01-21T20:22:20.518Z,6.42
2023-01-21T20:24:20.428Z,6.50
2023-01-21T20:26:24.249Z,6.47
2023-01-21T20:28:24.510Z,6.36
2023-01-21T20:30:25.674Z,6.29
2023-01-21T20:32:23.966Z,6.26
2023-01-21T20:34:22.242Z,6.20
2023-01-21T20:36:23.533Z,6.15
2023-01-21T20:38:26.876Z,6.12
2023-01-21T20:40:28.151Z,6.03
2023-01-21T20:42:27.388Z,5.94
2023-01-21T20:44:26.172Z,5.87
2023-01-21T20:46:28.584Z,5.82
2023-01-21T20:48:28.901Z,5.77
2023-01-21T20:50:31.702Z,5.72
2023-01-21T20:52:30.123Z,5.71
2023-01-21T20:54:28.543Z,5.70
2023-01-21T20:56:30.076Z,5.71
2023-01-21T20:58:28.652Z,5.71
2023-01-21T21:00:29.308Z,5.67
2023-01-21T21:02:27.412Z,5.64
2023-01-21T21:04:28.198Z,5.62
2023-01-21T21:06:28.888Z,5.64
2023-01-21T21:08:27.288Z,5.62
2023-01-21T21:10:29.653Z,5.65
2023-01-21T21:12:29.240Z,5.68
2023-01-21T21:14:28.092Z,5.74
2023-01-21T21:16:30.157Z,5.86
2023-01-21T21:18:28.638Z,5.86
2023-01-21T21:20:28.701Z,5.84
2023-01-21T21:22:26.907Z,5.83
2023-01-21T21:24:27.158Z,5.79
2023-01-21T21:26:27.233Z,5.76
2023-01-21T21:28:27.058Z,5.76
2023-01-21T21:30:27.715Z,5.75
2023-01-21T21:32:26.205Z,5.84
2023-01-21T21:34:27.652Z,5.86
2023-01-21T21:36:26.068Z,5.76
2023-01-21T21:38:26.171Z,5.64
2023-01-21T21:40:27.134Z,5.52
2023-01-21T21:42:42.513Z,5.43
2023-01-21T21:44:44.769Z,5.39
2023-01-21T21:47:00.763Z,5.34
2023-01-21T21:48:59.111Z,5.33
2023-01-21T21:50:57.916Z,5.25
2023-01-21T21:52:56.403Z,5.21
2023-01-21T21:54:56.066Z,5.15
2023-01-21T21:56:54.229Z,5.05
2023-01-21T21:58:53.390Z,5.02
2023-01-21T22:00:54.235Z,4.98
2023-01-21T22:02:52.495Z,4.92
2023-01-21T22:04:54.939Z,4.88
2023-01-21T22:06:53.274Z,4.87
2023-01-21T22:08:54.026Z,4.90
2023-01-21T22:10:59.176Z,4.90
2023-01-21T22:12:57.362Z,4.79
2023-01-21T22:14:55.448Z,4.77
2023-01-21T22:16:55.262Z,4.78
2023-01-21T22:18:54.175Z,4.77
2023-01-21T22:20:55.458Z,4.65
2023-01-21T22:22:53.828Z,4.63
2023-01-21T22:24:54.649Z,4.76
2023-01-21T22:26:53.259Z,4.82
2023-01-21T22:28:52.377Z,4.78
2023-01-21T22:30:50.627Z,4.71
2023-01-21T22:32:50.148Z,4.60
2023-01-21T22:34:48.304Z,4.48
2023-01-21T22:36:48.303Z,4.47
2023-01-21T22:38:47.769Z,4.57
2023-01-21T22:40:52.870Z,4.66
2023-01-21T22:42:51.187Z,4.75
2023-01-21T22:44:49.428Z,4.80
2023-01-21T22:46:48.058Z,4.78
2023-01-21T22:48:47.928Z,4.75
2023-01-21T22:50:46.138Z,4.75
2023-01-21T22:52:44.433Z,4.91
2023-01-21T22:54:42.599Z,4.92
2023-01-21T22:56:51.998Z,4.97
2023-01-21T22:58:51.697Z,5.13
2023-01-21T23:00:50.262Z,5.07
2023-01-21T23:02:48.571Z,5.01
2023-01-21T23:04:48.162Z,5.00
2023-01-21T23:06:48.870Z,5.02
2023-01-21T23:08:47.659Z,5.05
2023-01-21T23:10:46.788Z,5.04
2023-01-21T23:12:45.178Z,5.05
2023-01-21T23:14:43.287Z,5.02
2023-01-21T23:16:41.511Z,5.01
2023-01-21T23:18:40.502Z,5.12
2023-01-21T23:20:42.144Z,5.20
2023-01-21T23:22:40.368Z,5.23
2023-01-21T23:24:38.595Z,5.22
2023-01-21T23:26:39.081Z,5.23
2023-01-21T23:28:38.096Z,5.29
2023-01-21T23:30:36.560Z,5.34
2023-01-21T23:32:35.095Z,5.37
2023-01-21T23:34:33.307Z,5.37
2023-01-21T23:36:33.091Z,5.37
2023-01-21T23:38:32.183Z,5.42
2023-01-21T23:40:30.673Z,5.52
2023-01-21T23:42:28.878Z,5.51
2023-01-21T23:44:27.211Z,5.41
2023-01-21T23:46:25.567Z,5.48
2023-01-21T23:48:24.017Z,5.52
2023-01-21T23:50:22.397Z,5.41
2023-01-21T23:52:22.255Z,5.31
2023-01-21T23:54:20.476Z,5.28
2023-01-21T23:56:22.188Z,5.29
2023-01-21T23:58:20.820Z,5.29
